createdAt,value
2018-12-24T00:00:04.005Z,31.7
2018-12-24T00:01:03.632Z,31.7
2018-12-24T00:02:03.817Z,19.4
2018-12-24T00:03:03.241Z,25.6
2018-12-24T00:04:04.000Z,20.9
2018-12-24T00:05:03.779Z,19.4
2018-12-24T00:06:03.639Z,25.6
2018-12-24T00:07:03.163Z,22
2018-12-24T00:08:03.999Z,25.6
2018-12-24T00:09:03.456Z,22
2018-12-24T00:10:03.804Z,33.1
2018-12-24T00:11:04.180Z,33.1
2018-12-24T00:12:07.786Z,20.9
2018-12-24T00:13:03.744Z,23.4
2018-12-24T00:14:03.205Z,19.4
2018-12-24T00:15:03.780Z,35.6
2018-12-24T00:16:03.201Z,33.1
2018-12-24T00:17:03.664Z,33.1
2018-12-24T00:18:03.303Z,25.6
2018-12-24T00:19:03.774Z,28.1
2018-12-24T00:20:03.286Z,22
2018-12-24T00:21:04.209Z,27
2018-12-24T00:22:04.106Z,23.4
2018-12-24T00:23:03.738Z,23.4
2018-12-24T00:24:03.720Z,19.4
2018-12-24T00:25:03.136Z,25.6
2018-12-24T00:26:03.606Z,24.5
2018-12-24T00:27:02.930Z,23.4
2018-12-24T00:28:03.411Z,24.5
2018-12-24T00:29:03.816Z,19.4
2018-12-24T00:30:03.009Z,18.4
2018-12-24T00:31:03.788Z,24.5
2018-12-24T00:32:03.865Z,25.6
2018-12-24T00:33:03.593Z,30.6
2018-12-24T00:34:03.947Z,24.5
2018-12-24T00:35:03.265Z,17.3
2018-12-24T00:36:03.611Z,18.4
2018-12-24T00:37:03.187Z,18.4
2018-12-24T00:38:03.288Z,23.4
2018-12-24T00:39:03.417Z,27
2018-12-24T00:40:03.393Z,20.9
2018-12-24T00:41:03.678Z,23.4
2018-12-24T00:42:03.544Z,19.4
2018-12-24T00:43:03.469Z,22
2018-12-24T00:44:03.555Z,23.4
2018-12-24T00:45:03.018Z,19.4
2018-12-24T00:46:03.656Z,28.1
2018-12-24T00:47:03.956Z,23.4
2018-12-24T00:48:03.650Z,23.4
2018-12-24T00:49:03.375Z,18.4
2018-12-24T00:50:03.743Z,20.9
2018-12-24T00:51:03.953Z,22
2018-12-24T00:52:03.547Z,20.9
2018-12-24T00:53:03.901Z,30.6
2018-12-24T00:54:03.534Z,18.4
2018-12-24T00:55:03.786Z,23.4
2018-12-24T00:56:03.635Z,28.1
2018-12-24T00:57:03.110Z,28.1
2018-12-24T00:58:06.557Z,24.5
2018-12-24T00:59:03.815Z,24.5
2018-12-24T01:00:03.263Z,25.6
2018-12-24T01:01:03.392Z,29.5
2018-12-24T01:02:03.254Z,29.5
2018-12-24T01:03:03.400Z,29.5
2018-12-24T01:04:02.884Z,29.5
2018-12-24T01:05:03.423Z,29.5
2018-12-24T01:06:03.592Z,29.5
2018-12-24T01:07:03.354Z,29.5
2018-12-24T01:08:03.875Z,29.5
2018-12-24T01:09:03.161Z,29.5
2018-12-24T01:10:03.445Z,29.5
2018-12-24T01:11:03.779Z,27
2018-12-24T01:12:03.234Z,20.9
2018-12-24T01:13:03.214Z,24.5
2018-12-24T01:14:03.279Z,18.4
2018-12-24T01:15:03.955Z,22
2018-12-24T01:16:03.245Z,27
2018-12-24T01:17:03.985Z,22
2018-12-24T01:18:03.206Z,23.4
2018-12-24T01:19:03.748Z,31.7
2018-12-24T01:20:03.310Z,19.4
2018-12-24T01:21:02.977Z,28.1
2018-12-24T01:22:03.601Z,30.6
2018-12-24T01:23:03.878Z,28.1
2018-12-24T01:24:03.486Z,24.5
2018-12-24T01:25:03.244Z,24.5
2018-12-24T01:26:03.293Z,28.1
2018-12-24T01:27:02.855Z,28.1
2018-12-24T01:28:03.503Z,30.6
2018-12-24T01:29:03.917Z,20.9
2018-12-24T01:30:03.608Z,24.5
2018-12-24T01:31:03.409Z,20.9
2018-12-24T01:32:03.519Z,20.9
2018-12-24T01:33:03.906Z,25.6
2018-12-24T01:34:03.624Z,27
2018-12-24T01:35:03.952Z,22
2018-12-24T01:36:03.458Z,19.4
2018-12-24T01:37:03.892Z,34.2
2018-12-24T01:38:03.745Z,29.5
2018-12-24T01:39:03.677Z,27
2018-12-24T01:40:03.622Z,30.6
2018-12-24T01:41:03.878Z,27
2018-12-24T01:42:02.903Z,28.1
2018-12-24T01:43:03.179Z,24.5
2018-12-24T01:44:03.796Z,25.6
2018-12-24T01:45:03.405Z,25.6
2018-12-24T01:46:03.005Z,22
2018-12-24T01:47:04.042Z,22
2018-12-24T01:48:03.611Z,25.6
2018-12-24T01:49:03.179Z,28.1
2018-12-24T01:50:04.040Z,34.2
2018-12-24T01:51:03.300Z,33.1
2018-12-24T01:52:03.251Z,29.5
2018-12-24T01:53:03.177Z,23.4
2018-12-24T01:54:03.189Z,25.6
2018-12-24T01:55:03.926Z,28.1
2018-12-24T01:56:03.317Z,22
2018-12-24T01:57:03.873Z,29.5
2018-12-24T01:58:03.096Z,27
2018-12-24T01:59:03.638Z,28.1
2018-12-24T02:00:03.622Z,29.5
2018-12-24T02:01:03.750Z,28.1
2018-12-24T02:02:03.265Z,27
2018-12-24T02:03:03.459Z,29.5
2018-12-24T02:04:03.885Z,28.1
2018-12-24T02:05:03.744Z,33.1
2018-12-24T02:06:03.149Z,23.4
2018-12-24T02:07:03.906Z,18.4
2018-12-24T02:08:03.301Z,24.5
2018-12-24T02:09:03.750Z,23.4
2018-12-24T02:10:03.435Z,30.6
2018-12-24T02:11:03.737Z,29.5
2018-12-24T02:12:03.694Z,30.6
2018-12-24T02:13:03.368Z,25.6
2018-12-24T02:14:03.832Z,29.5
2018-12-24T02:15:03.188Z,31.7
2018-12-24T02:16:03.788Z,33.1
2018-12-24T02:17:03.458Z,24.5
2018-12-24T02:18:03.696Z,25.6
2018-12-24T02:19:03.439Z,28.1
2018-12-24T02:20:03.774Z,24.5
2018-12-24T02:21:03.090Z,24.5
2018-12-24T02:22:13.430Z,18.4
2018-12-24T02:23:03.380Z,22
2018-12-24T02:24:03.781Z,29.5
2018-12-24T02:25:03.329Z,29.5
2018-12-24T02:26:09.161Z,25.6
2018-12-24T02:27:03.644Z,23.4
2018-12-24T02:28:03.672Z,29.5
2018-12-24T02:29:03.659Z,24.5
2018-12-24T02:30:03.133Z,25.6
2018-12-24T02:31:03.515Z,34.2
2018-12-24T02:32:04.123Z,27
2018-12-24T02:33:03.188Z,24.5
2018-12-24T02:34:03.471Z,24.5
2018-12-24T02:35:03.107Z,28.1
2018-12-24T02:36:03.519Z,28.1
2018-12-24T02:37:02.954Z,33.1
2018-12-24T02:38:03.161Z,23.4
2018-12-24T02:39:03.793Z,25.6
2018-12-24T02:40:03.322Z,35.6
2018-12-24T02:41:03.447Z,33.1
2018-12-24T02:42:03.028Z,31.7
2018-12-24T02:43:03.905Z,33.1
2018-12-24T02:44:03.136Z,29.5
2018-12-24T02:45:03.751Z,25.6
2018-12-24T02:46:03.193Z,30.6
2018-12-24T02:47:03.256Z,29.5
2018-12-24T02:48:03.092Z,28.1
2018-12-24T02:49:03.377Z,28.1
2018-12-24T02:50:03.664Z,31.7
2018-12-24T02:51:03.697Z,28.1
2018-12-24T02:52:03.462Z,36.7
2018-12-24T02:53:03.557Z,34.2
2018-12-24T02:54:03.401Z,29.5
2018-12-24T02:55:03.824Z,41.8
2018-12-24T02:56:03.278Z,29.5
2018-12-24T02:57:03.961Z,29.5
2018-12-24T02:58:03.175Z,22
2018-12-24T02:59:03.398Z,19.4
2018-12-24T03:00:03.177Z,19.4
2018-12-24T03:01:04.233Z,19.4
2018-12-24T03:02:03.383Z,19.4
2018-12-24T03:03:03.830Z,19.4
2018-12-24T03:04:03.545Z,19.4
2018-12-24T03:05:03.912Z,19.4
2018-12-24T03:06:03.534Z,19.4
2018-12-24T03:07:03.095Z,19.4
2018-12-24T03:08:03.167Z,19.4
2018-12-24T03:09:03.927Z,11.2
2018-12-24T03:10:03.151Z,11.2
2018-12-24T03:11:03.835Z,12.2
2018-12-24T03:12:03.328Z,13.3
2018-12-24T03:13:03.673Z,14.8
2018-12-24T03:14:03.230Z,12.2
2018-12-24T03:15:04.062Z,9.7
2018-12-24T03:16:03.658Z,12.2
2018-12-24T03:17:03.211Z,13.3
2018-12-24T03:18:03.004Z,12.2
2018-12-24T03:19:06.674Z,12.2
2018-12-24T03:20:03.646Z,12.2
2018-12-24T03:21:03.213Z,13.3
2018-12-24T03:22:03.586Z,11.2
2018-12-24T03:23:03.851Z,13.3
2018-12-24T03:24:03.380Z,13.3
2018-12-24T03:25:03.943Z,12.2
2018-12-24T03:26:03.412Z,15.8
2018-12-24T03:27:03.495Z,17.3
2018-12-24T03:28:03.243Z,22
2018-12-24T03:29:03.585Z,17.3
2018-12-24T03:30:03.173Z,17.3
2018-12-24T03:31:03.829Z,18.4
2018-12-24T03:32:03.197Z,18.4
2018-12-24T03:33:03.207Z,25.6
2018-12-24T03:34:03.054Z,20.9
2018-12-24T03:35:03.508Z,15.8
2018-12-24T03:36:03.334Z,18.4
2018-12-24T03:37:04.223Z,19.4
2018-12-24T03:38:03.475Z,17.3
2018-12-24T03:39:03.359Z,18.4
2018-12-24T03:40:03.185Z,14.8
2018-12-24T03:41:02.927Z,15.8
2018-12-24T03:42:03.324Z,17.3
2018-12-24T03:43:13.513Z,13.3
2018-12-24T03:44:03.019Z,18.4
2018-12-24T03:45:03.956Z,17.3
2018-12-24T03:46:04.052Z,14.8
2018-12-24T03:47:03.153Z,14.8
2018-12-24T03:48:03.562Z,17.3
2018-12-24T03:49:03.444Z,15.8
2018-12-24T03:50:03.770Z,14.8
2018-12-24T03:51:03.103Z,19.4
2018-12-24T03:52:03.046Z,15.8
2018-12-24T03:53:03.666Z,13.3
2018-12-24T03:54:04.001Z,17.3
2018-12-24T03:55:04.036Z,15.8
2018-12-24T03:56:03.604Z,17.3
2018-12-24T03:57:03.863Z,17.3
2018-12-24T03:58:03.434Z,18.4
2018-12-24T03:59:03.230Z,14.8
2018-12-24T04:00:03.014Z,14.8
2018-12-24T04:01:03.044Z,17.3
2018-12-24T04:02:03.715Z,13.3
2018-12-24T04:03:03.535Z,12.2
2018-12-24T04:04:03.594Z,12.2
2018-12-24T04:05:03.668Z,15.8
2018-12-24T04:06:03.490Z,13.3
2018-12-24T04:07:03.272Z,14.8
2018-12-24T04:08:03.374Z,9.7
2018-12-24T04:09:03.459Z,11.2
2018-12-24T04:10:03.465Z,11.2
2018-12-24T04:11:03.915Z,11.2
2018-12-24T04:12:03.019Z,13.3
2018-12-24T04:13:03.575Z,11.2
2018-12-24T04:14:03.707Z,11.2
2018-12-24T04:15:03.420Z,11.2
2018-12-24T04:16:03.021Z,14.8
2018-12-24T04:17:03.826Z,11.2
2018-12-24T04:18:03.848Z,14.8
2018-12-24T04:19:03.881Z,12.2
2018-12-24T04:20:03.282Z,14.8
2018-12-24T04:21:03.397Z,17.3
2018-12-24T04:22:03.251Z,12.2
2018-12-24T04:23:03.947Z,9.7
2018-12-24T04:24:03.694Z,12.2
2018-12-24T04:25:03.455Z,12.2
2018-12-24T04:26:03.988Z,13.3
2018-12-24T04:27:03.003Z,11.2
2018-12-24T04:28:03.331Z,15.8
2018-12-24T04:29:03.914Z,11.2
2018-12-24T04:30:03.221Z,11.2
2018-12-24T04:31:03.033Z,9.7
2018-12-24T04:32:03.778Z,9.7
2018-12-24T04:33:03.580Z,9.7
2018-12-24T04:34:03.407Z,9.7
2018-12-24T04:35:03.060Z,11.2
2018-12-24T04:36:03.903Z,13.3
2018-12-24T04:37:02.964Z,12.2
2018-12-24T04:38:03.709Z,12.2
2018-12-24T04:39:03.438Z,9.7
2018-12-24T04:40:03.682Z,15.8
2018-12-24T04:41:03.210Z,15.8
2018-12-24T04:42:03.727Z,13.3
2018-12-24T04:43:03.117Z,19.4
2018-12-24T04:44:03.416Z,20.9
2018-12-24T04:45:03.941Z,14.8
2018-12-24T04:46:03.462Z,9.7
2018-12-24T04:47:03.831Z,8.6
2018-12-24T04:48:02.993Z,7.2
2018-12-24T04:49:03.306Z,14.8
2018-12-24T04:50:03.499Z,12.2
2018-12-24T04:51:03.920Z,12.2
2018-12-24T04:52:03.647Z,11.2
2018-12-24T04:53:03.782Z,6.1
2018-12-24T04:54:03.365Z,8.6
2018-12-24T04:55:03.808Z,14.8
2018-12-24T04:56:03.432Z,14.8
2018-12-24T04:57:03.408Z,12.2
2018-12-24T04:58:03.124Z,14.8
2018-12-24T04:59:03.567Z,13.3
2018-12-24T05:00:03.145Z,17.3
2018-12-24T05:01:02.972Z,17.3
2018-12-24T05:02:03.841Z,17.3
2018-12-24T05:03:03.801Z,17.3
2018-12-24T05:04:03.304Z,17.3
2018-12-24T05:05:04.181Z,17.3
2018-12-24T05:06:03.595Z,17.3
2018-12-24T05:07:03.588Z,17.3
2018-12-24T05:08:03.637Z,17.3
2018-12-24T05:09:02.960Z,6.1
2018-12-24T05:10:03.639Z,6.1
2018-12-24T05:11:03.013Z,12.2
2018-12-24T05:12:03.450Z,13.3
2018-12-24T05:13:03.045Z,8.6
2018-12-24T05:14:03.570Z,13.3
2018-12-24T05:15:03.184Z,13.3
2018-12-24T05:16:03.679Z,14.8
2018-12-24T05:17:03.621Z,11.2
2018-12-24T05:18:03.104Z,15.8
2018-12-24T05:19:03.390Z,12.2
2018-12-24T05:20:03.408Z,12.2
2018-12-24T05:21:03.533Z,15.8
2018-12-24T05:22:03.314Z,18.4
2018-12-24T05:23:03.598Z,17.3
2018-12-24T05:24:03.584Z,17.3
2018-12-24T05:25:03.668Z,8.6
2018-12-24T05:26:03.556Z,12.2
2018-12-24T05:27:03.595Z,13.3
2018-12-24T05:28:03.349Z,12.2
2018-12-24T05:29:03.305Z,18.4
2018-12-24T05:30:03.680Z,8.6
2018-12-24T05:31:03.679Z,9.7
2018-12-24T05:32:03.773Z,11.2
2018-12-24T05:33:03.718Z,11.2
2018-12-24T05:34:03.441Z,14.8
2018-12-24T05:35:03.938Z,19.4
2018-12-24T05:36:03.905Z,13.3
2018-12-24T05:37:03.789Z,12.2
2018-12-24T05:38:03.118Z,9.7
2018-12-24T05:39:03.618Z,12.2
2018-12-24T05:40:03.151Z,9.7
2018-12-24T05:41:02.952Z,9.7
2018-12-24T05:42:04.139Z,9.7
2018-12-24T05:43:03.755Z,12.2
2018-12-24T05:44:03.285Z,13.3
2018-12-24T05:45:03.752Z,12.2
2018-12-24T05:46:03.820Z,15.8
2018-12-24T05:47:03.752Z,13.3
2018-12-24T05:48:03.909Z,14.8
2018-12-24T05:49:03.543Z,15.8
2018-12-24T05:50:03.317Z,17.3
2018-12-24T05:51:02.907Z,14.8
2018-12-24T05:52:03.054Z,14.8
2018-12-24T05:53:08.473Z,14.8
2018-12-24T05:54:03.868Z,14.8
2018-12-24T05:55:03.305Z,17.3
2018-12-24T05:56:03.166Z,15.8
2018-12-24T05:57:03.152Z,14.8
2018-12-24T05:58:03.951Z,14.8
2018-12-24T05:59:03.240Z,11.2
2018-12-24T06:00:03.438Z,15.8
2018-12-24T06:01:02.845Z,17.3
2018-12-24T06:02:03.146Z,19.4
2018-12-24T06:03:03.776Z,14.8
2018-12-24T06:04:03.400Z,14.8
2018-12-24T06:05:02.991Z,15.8
2018-12-24T06:06:03.225Z,9.7
2018-12-24T06:07:03.362Z,15.8
2018-12-24T06:08:03.142Z,15.8
2018-12-24T06:09:03.654Z,9.7
2018-12-24T06:10:03.052Z,13.3
2018-12-24T06:11:03.737Z,14.8
2018-12-24T06:12:02.989Z,13.3
2018-12-24T06:13:02.924Z,11.2
2018-12-24T06:14:03.440Z,14.8
2018-12-24T06:15:03.128Z,14.8
2018-12-24T06:16:03.432Z,12.2
2018-12-24T06:17:03.039Z,17.3
2018-12-24T06:18:02.862Z,11.2
2018-12-24T06:19:02.886Z,11.2
2018-12-24T06:20:03.877Z,14.8
2018-12-24T06:21:03.771Z,11.2
2018-12-24T06:22:03.608Z,18.4
2018-12-24T06:23:03.470Z,14.8
2018-12-24T06:24:03.755Z,11.2
2018-12-24T06:25:04.037Z,12.2
2018-12-24T06:26:03.170Z,15.8
2018-12-24T06:27:03.133Z,15.8
2018-12-24T06:28:03.173Z,14.8
2018-12-24T06:29:03.985Z,14.8
2018-12-24T06:30:03.432Z,14.8
2018-12-24T06:31:03.064Z,14.8
2018-12-24T06:32:02.971Z,8.6
2018-12-24T06:33:03.717Z,14.8
2018-12-24T06:34:03.482Z,8.6
2018-12-24T06:35:02.971Z,8.6
2018-12-24T06:36:03.673Z,7.2
2018-12-24T06:37:03.495Z,13.3
2018-12-24T06:38:02.840Z,12.2
2018-12-24T06:39:03.472Z,13.3
2018-12-24T06:40:03.335Z,8.6
2018-12-24T06:41:04.012Z,11.2
2018-12-24T06:42:03.718Z,11.2
2018-12-24T06:43:03.125Z,9.7
2018-12-24T06:44:07.392Z,9.7
2018-12-24T06:45:03.221Z,11.2
2018-12-24T06:46:03.777Z,8.6
2018-12-24T06:47:03.290Z,8.6
2018-12-24T06:48:03.557Z,9.7
2018-12-24T06:49:02.898Z,8.6
2018-12-24T06:50:03.382Z,12.2
2018-12-24T06:51:04.046Z,11.2
2018-12-24T06:52:03.532Z,7.2
2018-12-24T06:53:03.083Z,9.7
2018-12-24T06:54:03.802Z,11.2
2018-12-24T06:55:03.629Z,9.7
2018-12-24T06:56:03.824Z,9.7
2018-12-24T06:57:03.928Z,11.2
2018-12-24T06:58:03.483Z,8.6
2018-12-24T06:59:05.689Z,8.6
2018-12-24T07:00:04.036Z,8.6
2018-12-24T07:01:03.483Z,8.6
2018-12-24T07:02:03.645Z,8.6
2018-12-24T07:03:03.503Z,8.6
2018-12-24T07:04:03.384Z,8.6
2018-12-24T07:05:03.302Z,8.6
2018-12-24T07:06:03.161Z,8.6
2018-12-24T07:07:03.202Z,8.6
2018-12-24T07:08:03.096Z,8.6
2018-12-24T07:09:03.657Z,12.2
2018-12-24T07:10:03.203Z,18.4
2018-12-24T07:11:03.866Z,17.3
2018-12-24T07:12:03.009Z,12.2
2018-12-24T07:13:03.655Z,11.2
2018-12-24T07:14:03.779Z,11.2
2018-12-24T07:15:03.147Z,14.8
2018-12-24T07:16:03.279Z,12.2
2018-12-24T07:17:03.595Z,13.3
2018-12-24T07:18:03.286Z,14.8
2018-12-24T07:19:03.009Z,11.2
2018-12-24T07:20:03.737Z,11.2
2018-12-24T07:21:03.559Z,11.2
2018-12-24T07:22:03.432Z,11.2
2018-12-24T07:23:03.370Z,11.2
2018-12-24T07:24:03.396Z,12.2
2018-12-24T07:25:03.972Z,9.7
2018-12-24T07:26:03.290Z,9.7
2018-12-24T07:27:03.561Z,12.2
2018-12-24T07:28:03.789Z,11.2
2018-12-24T07:29:03.616Z,12.2
2018-12-24T07:30:03.118Z,13.3
2018-12-24T07:31:03.446Z,11.2
2018-12-24T07:32:03.274Z,12.2
2018-12-24T07:33:03.162Z,11.2
2018-12-24T07:34:03.244Z,8.6
2018-12-24T07:35:03.260Z,8.6
2018-12-24T07:36:03.817Z,9.7
2018-12-24T07:37:03.501Z,11.2
2018-12-24T07:38:03.653Z,8.6
2018-12-24T07:39:03.314Z,8.6
2018-12-24T07:40:03.591Z,9.7
2018-12-24T07:41:03.198Z,9.7
2018-12-24T07:42:03.027Z,9.7
2018-12-24T07:43:03.670Z,8.6
2018-12-24T07:44:03.024Z,8.6
2018-12-24T07:45:03.301Z,11.2
2018-12-24T07:46:03.629Z,6.1
2018-12-24T07:47:03.327Z,9.7
2018-12-24T07:48:03.724Z,8.6
2018-12-24T07:49:03.056Z,8.6
2018-12-24T07:50:03.460Z,8.6
2018-12-24T07:51:03.201Z,11.2
2018-12-24T07:52:03.999Z,11.2
2018-12-24T07:53:03.299Z,13.3
2018-12-24T07:54:03.601Z,12.2
2018-12-24T07:55:03.730Z,13.3
2018-12-24T07:56:03.280Z,12.2
2018-12-24T07:57:02.979Z,9.7
2018-12-24T07:58:03.685Z,9.7
2018-12-24T07:59:03.142Z,9.7
2018-12-24T08:00:03.771Z,11.2
2018-12-24T08:01:03.155Z,12.2
2018-12-24T08:02:03.376Z,12.2
2018-12-24T08:03:03.896Z,11.2
2018-12-24T08:04:03.501Z,9.7
2018-12-24T08:05:03.787Z,13.3
2018-12-24T08:06:03.192Z,12.2
2018-12-24T08:07:03.789Z,13.3
2018-12-24T08:08:03.973Z,14.8
2018-12-24T08:09:03.222Z,8.6
2018-12-24T08:10:03.647Z,14.8
2018-12-24T08:11:03.808Z,13.3
2018-12-24T08:12:03.655Z,12.2
2018-12-24T08:13:03.397Z,9.7
2018-12-24T08:14:03.138Z,12.2
2018-12-24T08:15:03.259Z,9.7
2018-12-24T08:16:03.135Z,12.2
2018-12-24T08:17:03.425Z,13.3
2018-12-24T08:18:03.588Z,15.8
2018-12-24T08:19:03.163Z,15.8
2018-12-24T08:20:04.054Z,12.2
2018-12-24T08:21:04.258Z,12.2
2018-12-24T08:22:03.466Z,13.3
2018-12-24T08:23:02.940Z,12.2
2018-12-24T08:24:03.758Z,11.2
2018-12-24T08:25:03.785Z,13.3
2018-12-24T08:26:02.963Z,9.7
2018-12-24T08:27:03.024Z,12.2
2018-12-24T08:28:03.098Z,13.3
2018-12-24T08:29:03.521Z,14.8
2018-12-24T08:30:04.835Z,9.7
2018-12-24T08:31:05.981Z,12.2
2018-12-24T08:32:04.710Z,13.3
2018-12-24T08:33:03.128Z,13.3
2018-12-24T08:34:03.623Z,12.2
2018-12-24T08:35:03.203Z,13.3
2018-12-24T08:36:03.238Z,13.3
2018-12-24T08:37:03.762Z,17.3
2018-12-24T08:38:03.076Z,14.8
2018-12-24T08:39:03.384Z,17.3
2018-12-24T08:40:04.839Z,15.8
2018-12-24T08:41:03.777Z,11.2
2018-12-24T08:42:05.644Z,9.7
2018-12-24T08:43:03.923Z,11.2
2018-12-24T08:44:03.682Z,9.7
2018-12-24T08:45:04.035Z,12.2
2018-12-24T08:46:03.887Z,9.7
2018-12-24T08:47:02.864Z,11.2
2018-12-24T08:48:03.329Z,13.3
2018-12-24T08:49:03.287Z,13.3
2018-12-24T08:50:04.742Z,13.3
2018-12-24T08:51:03.424Z,9.7
2018-12-24T08:52:03.514Z,11.2
2018-12-24T08:53:03.729Z,12.2
2018-12-24T08:54:03.462Z,11.2
2018-12-24T08:55:03.168Z,11.2
2018-12-24T08:56:03.550Z,11.2
2018-12-24T08:57:03.282Z,8.6
2018-12-24T08:58:03.697Z,8.6
2018-12-24T08:59:03.468Z,11.2
2018-12-24T09:00:05.635Z,7.2
2018-12-24T09:01:03.559Z,12.2
2018-12-24T09:02:03.839Z,12.2
2018-12-24T09:03:03.065Z,12.2
2018-12-24T09:04:03.002Z,12.2
2018-12-24T09:05:04.065Z,12.2
2018-12-24T09:06:03.343Z,12.2
2018-12-24T09:07:03.609Z,12.2
2018-12-24T09:08:03.259Z,12.2
2018-12-24T09:09:03.248Z,9.7
2018-12-24T09:10:04.384Z,9.7
2018-12-24T09:11:03.581Z,8.6
2018-12-24T09:12:05.687Z,8.6
2018-12-24T09:13:02.824Z,8.6
2018-12-24T09:14:03.087Z,11.2
2018-12-24T09:15:03.522Z,8.6
2018-12-24T09:16:03.067Z,8.6
2018-12-24T09:17:03.809Z,9.7
2018-12-24T09:18:03.716Z,6.1
2018-12-24T09:19:03.685Z,8.6
2018-12-24T09:20:04.549Z,8.6
2018-12-24T09:21:03.389Z,9.7
2018-12-24T09:22:04.367Z,8.6
2018-12-24T09:23:03.027Z,7.2
2018-12-24T09:24:03.446Z,8.6
2018-12-24T09:25:03.963Z,5
2018-12-24T09:26:03.377Z,8.6
2018-12-24T09:27:03.688Z,8.6
2018-12-24T09:28:03.389Z,9.7
2018-12-24T09:29:03.910Z,9.7
2018-12-24T09:30:03.819Z,7.2
2018-12-24T09:31:03.183Z,7.2
2018-12-24T09:32:03.687Z,7.2
2018-12-24T09:33:03.682Z,7.2
2018-12-24T09:34:03.164Z,6.1
2018-12-24T09:35:03.706Z,9.7
2018-12-24T09:36:03.767Z,7.2
2018-12-24T09:37:03.200Z,7.2
2018-12-24T09:38:03.912Z,11.2
2018-12-24T09:39:03.583Z,9.7
2018-12-24T09:40:03.459Z,12.2
2018-12-24T09:41:04.006Z,8.6
2018-12-24T09:42:03.611Z,9.7
2018-12-24T09:43:03.174Z,9.7
2018-12-24T09:44:03.799Z,8.6
2018-12-24T09:45:03.394Z,8.6
2018-12-24T09:46:03.917Z,11.2
2018-12-24T09:47:03.846Z,9.7
2018-12-24T09:48:04.323Z,7.2
2018-12-24T09:49:03.447Z,9.7
2018-12-24T09:50:04.007Z,9.7
2018-12-24T09:51:03.817Z,9.7
2018-12-24T09:52:03.583Z,11.2
2018-12-24T09:53:03.126Z,9.7
2018-12-24T09:54:03.329Z,9.7
2018-12-24T09:55:03.501Z,11.2
2018-12-24T09:56:03.814Z,9.7
2018-12-24T09:57:03.005Z,12.2
2018-12-24T09:58:03.390Z,9.7
2018-12-24T09:59:02.981Z,9.7
2018-12-24T10:00:03.050Z,9.7
2018-12-24T10:01:03.426Z,12.2
2018-12-24T10:02:03.472Z,11.2
2018-12-24T10:03:03.464Z,11.2
2018-12-24T10:04:03.638Z,9.7
2018-12-24T10:05:03.620Z,11.2
2018-12-24T10:06:03.307Z,9.7
2018-12-24T10:07:03.278Z,12.2
2018-12-24T10:08:03.105Z,11.2
2018-12-24T10:09:03.289Z,11.2
2018-12-24T10:10:03.470Z,9.7
2018-12-24T10:11:03.467Z,8.6
2018-12-24T10:12:04.197Z,7.2
2018-12-24T10:13:03.652Z,8.6
2018-12-24T10:14:02.889Z,13.3
2018-12-24T10:15:08.550Z,11.2
2018-12-24T10:16:03.405Z,13.3
2018-12-24T10:17:03.284Z,11.2
2018-12-24T10:18:03.688Z,11.2
2018-12-24T10:19:03.109Z,12.2
2018-12-24T10:20:03.550Z,11.2
2018-12-24T10:21:03.692Z,8.6
2018-12-24T10:22:03.656Z,8.6
2018-12-24T10:23:03.481Z,9.7
2018-12-24T10:24:03.863Z,9.7
2018-12-24T10:25:03.449Z,7.2
2018-12-24T10:26:03.788Z,8.6
2018-12-24T10:27:03.632Z,11.2
2018-12-24T10:28:03.885Z,9.7
2018-12-24T10:29:03.347Z,11.2
2018-12-24T10:30:03.927Z,11.2
2018-12-24T10:31:03.196Z,11.2
2018-12-24T10:32:04.059Z,11.2
2018-12-24T10:33:03.129Z,8.6
2018-12-24T10:34:03.959Z,8.6
2018-12-24T10:35:04.121Z,6.1
2018-12-24T10:36:03.255Z,13.3
2018-12-24T10:37:03.910Z,12.2
2018-12-24T10:38:03.154Z,9.7
2018-12-24T10:39:03.613Z,9.7
2018-12-24T10:40:03.927Z,11.2
2018-12-24T10:41:03.546Z,9.7
2018-12-24T10:42:02.970Z,9.7
2018-12-24T10:43:03.709Z,9.7
2018-12-24T10:44:03.682Z,11.2
2018-12-24T10:45:04.065Z,13.3
2018-12-24T10:46:03.660Z,12.2
2018-12-24T10:47:02.925Z,11.2
2018-12-24T10:48:02.902Z,9.7
2018-12-24T10:49:03.433Z,9.7
2018-12-24T10:50:03.946Z,9.7
2018-12-24T10:51:03.570Z,9.7
2018-12-24T10:52:03.658Z,9.7
2018-12-24T10:53:03.053Z,9.7
2018-12-24T10:54:03.681Z,12.2
2018-12-24T10:55:03.579Z,9.7
2018-12-24T10:56:03.485Z,13.3
2018-12-24T10:57:03.426Z,13.3
2018-12-24T10:58:03.527Z,13.3
2018-12-24T10:59:03.078Z,9.7
2018-12-24T11:00:03.389Z,9.7
2018-12-24T11:01:03.766Z,11.2
2018-12-24T11:02:03.704Z,11.2
2018-12-24T11:03:03.955Z,11.2
2018-12-24T11:04:03.874Z,11.2
2018-12-24T11:05:03.428Z,11.2
2018-12-24T11:06:03.256Z,11.2
2018-12-24T11:07:03.289Z,11.2
2018-12-24T11:08:03.576Z,11.2
2018-12-24T11:09:03.574Z,12.2
2018-12-24T11:10:03.473Z,9.7
2018-12-24T11:11:03.143Z,8.6
2018-12-24T11:12:03.231Z,11.2
2018-12-24T11:13:03.489Z,9.7
2018-12-24T11:14:03.507Z,13.3
2018-12-24T11:15:03.930Z,8.6
2018-12-24T11:16:03.651Z,9.7
2018-12-24T11:17:03.487Z,11.2
2018-12-24T11:18:03.676Z,13.3
2018-12-24T11:19:03.371Z,13.3
2018-12-24T11:20:03.949Z,13.3
2018-12-24T11:21:03.220Z,9.7
2018-12-24T11:22:03.600Z,8.6
2018-12-24T11:23:03.262Z,11.2
2018-12-24T11:24:03.097Z,11.2
2018-12-24T11:25:03.187Z,11.2
2018-12-24T11:26:03.893Z,12.2
2018-12-24T11:27:03.759Z,13.3
2018-12-24T11:28:03.653Z,14.8
2018-12-24T11:29:03.477Z,13.3
2018-12-24T11:30:03.323Z,12.2
2018-12-24T11:31:03.736Z,13.3
2018-12-24T11:32:03.781Z,9.7
2018-12-24T11:33:03.422Z,8.6
2018-12-24T11:34:03.570Z,9.7
2018-12-24T11:35:03.439Z,9.7
2018-12-24T11:36:03.315Z,11.2
2018-12-24T11:37:03.068Z,11.2
2018-12-24T11:38:03.615Z,12.2
2018-12-24T11:39:03.978Z,13.3
2018-12-24T11:40:03.767Z,11.2
2018-12-24T11:41:03.788Z,9.7
2018-12-24T11:42:03.224Z,11.2
2018-12-24T11:43:03.109Z,8.6
2018-12-24T11:44:03.146Z,11.2
2018-12-24T11:45:03.851Z,11.2
2018-12-24T11:46:03.801Z,12.2
2018-12-24T11:47:03.631Z,11.2
2018-12-24T11:48:03.240Z,11.2
2018-12-24T11:49:03.019Z,11.2
2018-12-24T11:50:03.989Z,9.7
2018-12-24T11:51:03.388Z,9.7
2018-12-24T11:52:03.789Z,8.6
2018-12-24T11:53:03.320Z,9.7
2018-12-24T11:54:02.833Z,7.2
2018-12-24T11:55:04.004Z,7.2
2018-12-24T11:56:03.248Z,9.7
2018-12-24T11:57:03.742Z,9.7
2018-12-24T11:58:03.512Z,7.2
2018-12-24T11:59:03.865Z,7.2
2018-12-24T12:00:03.712Z,7.2
2018-12-24T12:01:03.126Z,7.2
2018-12-24T12:02:10.581Z,5
2018-12-24T12:03:04.006Z,6.1
2018-12-24T12:04:03.101Z,7.2
2018-12-24T12:05:03.695Z,7.2
2018-12-24T12:06:03.665Z,9.7
2018-12-24T12:07:03.729Z,14.8
2018-12-24T12:08:03.587Z,15.8
2018-12-24T12:09:03.344Z,18.4
2018-12-24T12:10:03.681Z,9.7
2018-12-24T12:11:03.741Z,12.2
2018-12-24T12:12:03.272Z,8.6
2018-12-24T12:13:03.328Z,8.6
2018-12-24T12:14:03.664Z,8.6
2018-12-24T12:15:03.794Z,13.3
2018-12-24T12:16:03.347Z,12.2
2018-12-24T12:17:03.660Z,11.2
2018-12-24T12:18:03.898Z,11.2
2018-12-24T12:19:03.591Z,11.2
2018-12-24T12:20:03.827Z,12.2
2018-12-24T12:21:03.789Z,13.3
2018-12-24T12:22:03.086Z,13.3
2018-12-24T12:23:03.223Z,11.2
2018-12-24T12:24:03.827Z,9.7
2018-12-24T12:25:03.816Z,9.7
2018-12-24T12:26:03.934Z,9.7
2018-12-24T12:27:03.346Z,8.6
2018-12-24T12:28:03.646Z,12.2
2018-12-24T12:29:03.084Z,9.7
2018-12-24T12:30:03.711Z,6.1
2018-12-24T12:31:03.329Z,8.6
2018-12-24T12:32:03.810Z,11.2
2018-12-24T12:33:02.967Z,9.7
2018-12-24T12:34:03.799Z,11.2
2018-12-24T12:35:03.191Z,11.2
2018-12-24T12:36:03.413Z,11.2
2018-12-24T12:37:03.752Z,17.3
2018-12-24T12:38:03.138Z,15.8
2018-12-24T12:39:03.794Z,17.3
2018-12-24T12:40:03.155Z,17.3
2018-12-24T12:41:03.858Z,14.8
2018-12-24T12:42:03.768Z,11.2
2018-12-24T12:43:03.789Z,12.2
2018-12-24T12:44:03.600Z,12.2
2018-12-24T12:45:03.142Z,13.3
2018-12-24T12:46:04.146Z,12.2
2018-12-24T12:47:03.682Z,9.7
2018-12-24T12:48:03.827Z,11.2
2018-12-24T12:49:03.384Z,14.8
2018-12-24T12:50:03.920Z,11.2
2018-12-24T12:51:03.220Z,8.6
2018-12-24T12:52:03.854Z,12.2
2018-12-24T12:53:03.779Z,12.2
2018-12-24T12:54:03.142Z,11.2
2018-12-24T12:55:03.902Z,11.2
2018-12-24T12:56:04.274Z,13.3
2018-12-24T12:57:03.943Z,8.6
2018-12-24T12:58:03.612Z,11.2
2018-12-24T12:59:03.453Z,9.7
2018-12-24T13:00:03.580Z,11.2
2018-12-24T13:01:03.163Z,11.2
2018-12-24T13:02:03.409Z,9.7
2018-12-24T13:03:04.475Z,9.7
2018-12-24T13:04:04.021Z,9.7
2018-12-24T13:05:03.288Z,9.7
2018-12-24T13:06:03.962Z,9.7
2018-12-24T13:07:04.067Z,9.7
2018-12-24T13:08:03.154Z,9.7
2018-12-24T13:09:03.345Z,12.2
2018-12-24T13:10:04.955Z,9.7
2018-12-24T13:11:03.223Z,9.7
2018-12-24T13:12:03.641Z,12.2
2018-12-24T13:13:02.986Z,14.8
2018-12-24T13:14:03.158Z,13.3
2018-12-24T13:15:02.981Z,13.3
2018-12-24T13:16:03.207Z,17.3
2018-12-24T13:17:03.844Z,14.8
2018-12-24T13:18:03.390Z,19.4
2018-12-24T13:19:03.796Z,15.8
2018-12-24T13:20:03.683Z,19.4
2018-12-24T13:21:03.596Z,19.4
2018-12-24T13:22:04.918Z,15.8
2018-12-24T13:23:03.090Z,13.3
2018-12-24T13:24:03.819Z,14.8
2018-12-24T13:25:03.580Z,15.8
2018-12-24T13:26:03.191Z,8.6
2018-12-24T13:27:03.253Z,14.8